createdAt,value
2023-02-28T00:00:15.803Z,16.92
2023-02-28T00:10:21.699Z,17.05
2023-02-28T00:20:26.570Z,20.00
2023-02-28T00:30:29.567Z,15.30
2023-02-28T00:40:33.953Z,17.60
2023-02-28T00:50:37.022Z,19.85
2023-02-28T01:00:41.369Z,18.33
2023-02-28T01:10:44.623Z,18.98
2023-02-28T01:20:49.255Z,18.77
2023-02-28T01:30:53.565Z,18.10
2023-02-28T01:40:58.369Z,17.80
2023-02-28T01:51:05.049Z,19.55
2023-02-28T02:01:09.454Z,17.30
2023-02-28T02:11:15.652Z,16.55
2023-02-28T02:21:52.977Z,16.13
2023-02-28T02:32:19.684Z,19.70
2023-02-28T02:42:30.744Z,17.23
2023-02-28T02:52:39.556Z,15.57
2023-02-28T03:02:47.521Z,13.75
2023-02-28T03:13:01.258Z,22.30
2023-02-28T03:23:17.029Z,17.50
2023-02-28T03:33:24.165Z,16.30
2023-02-28T03:43:31.793Z,15.80
2023-02-28T03:53:38.022Z,17.48
2023-02-28T04:03:42.443Z,14.63
2023-02-28T04:13:47.442Z,15.82
2023-02-28T04:23:51.973Z,14.10
2023-02-28T04:33:54.955Z,13.93
2023-02-28T04:43:59.380Z,14.63
2023-02-28T04:54:02.315Z,18.42
2023-02-28T05:04:07.029Z,17.35
2023-02-28T05:14:14.247Z,13.75
2023-02-28T05:24:23.671Z,12.80
2023-02-28T05:34:26.738Z,14.90
2023-02-28T05:44:31.212Z,12.07
2023-02-28T05:54:34.425Z,14.23
2023-02-28T06:04:38.796Z,9.52
2023-02-28T06:14:42.008Z,13.47
2023-02-28T06:24:46.499Z,12.13
2023-02-28T06:34:49.936Z,18.85
2023-02-28T06:44:54.446Z,11.05
2023-02-28T06:55:02.192Z,12.20
2023-02-28T07:05:07.566Z,10.60
2023-02-28T07:15:11.962Z,15.02
2023-02-28T07:25:16.756Z,13.93
2023-02-28T07:45:25.118Z,11.15
2023-02-28T07:55:28.479Z,12.50
2023-02-28T08:05:33.035Z,15.93
2023-02-28T08:15:36.430Z,9.60
2023-02-28T08:25:41.404Z,6.50
2023-02-28T08:45:48.872Z,4.00
2023-02-28T08:55:58.530Z,5.30
2023-02-28T09:06:03.194Z,3.95
2023-02-28T09:16:08.547Z,3.17
2023-02-28T09:26:18.214Z,4.90
2023-02-28T09:36:23.231Z,3.67
2023-02-28T09:46:38.610Z,11.70
2023-02-28T09:56:44.187Z,6.45
2023-02-28T10:06:52.395Z,2.78
2023-02-28T10:16:58.848Z,6.35
2023-02-28T10:27:13.682Z,3.63
2023-02-28T10:37:17.137Z,4.05
2023-02-28T10:47:22.052Z,9.63
2023-02-28T10:57:26.724Z,4.35
2023-02-28T11:07:41.477Z,4.85
2023-02-28T11:17:59.070Z,6.43
2023-02-28T11:28:07.874Z,3.45
2023-02-28T11:38:14.663Z,4.88
2023-02-28T11:48:24.202Z,3.80
2023-02-28T11:58:46.683Z,2.70
2023-02-28T12:09:04.076Z,4.43
2023-02-28T12:19:19.253Z,2.90
2023-02-28T12:39:34.468Z,3.03
2023-02-28T12:49:48.992Z,3.55
2023-02-28T12:59:56.949Z,5.25
2023-02-28T13:10:04.557Z,3.78
2023-02-28T13:20:18.044Z,3.13
2023-02-28T13:31:00.890Z,6.35
2023-02-28T13:41:41.391Z,7.88
2023-02-28T13:51:48.314Z,4.85
2023-02-28T14:02:16.014Z,3.35
2023-02-28T14:12:59.336Z,3.88
2023-02-28T14:23:09.692Z,4.85
2023-02-28T14:33:25.179Z,3.20
2023-02-28T14:43:29.463Z,4.10
2023-02-28T14:53:39.446Z,3.50
2023-02-28T15:03:45.756Z,6.43
2023-02-28T15:13:52.332Z,3.83
2023-02-28T15:23:59.214Z,4.72
2023-02-28T15:34:08.303Z,6.68
2023-02-28T15:44:30.915Z,4.82
2023-02-28T15:54:37.428Z,4.45
2023-02-28T16:04:58.955Z,6.53
2023-02-28T16:15:11.167Z,9.13
2023-02-28T16:25:15.826Z,6.32
2023-02-28T16:35:20.993Z,8.23
2023-02-28T16:45:27.181Z,8.00
2023-02-28T16:55:31.953Z,6.20
2023-02-28T17:05:39.674Z,5.50
2023-02-28T17:15:48.630Z,6.63
2023-02-28T17:25:57.963Z,9.73
2023-02-28T17:36:02.672Z,15.43
2023-02-28T17:46:07.192Z,19.87
2023-02-28T17:56:15.606Z,35.20
2023-02-28T18:06:22.413Z,12.77
2023-02-28T18:16:27.600Z,9.30
2023-02-28T18:26:31.085Z,10.05
2023-02-28T18:36:36.036Z,8.45
2023-02-28T18:46:39.550Z,11.40
2023-02-28T18:56:44.514Z,11.02
2023-02-28T19:16:52.168Z,15.43
2023-02-28T19:36:59.624Z,12.88
2023-02-28T19:47:03.069Z,25.23
2023-02-28T19:57:07.720Z,20.35
2023-02-28T20:07:10.889Z,21.27
2023-02-28T20:17:15.415Z,14.00
2023-02-28T20:27:18.702Z,21.38
2023-02-28T20:37:23.080Z,14.48
2023-02-28T20:47:26.262Z,12.93
2023-02-28T20:57:31.424Z,15.30
2023-02-28T21:07:34.950Z,16.05
2023-02-28T21:17:39.468Z,21.65
2023-02-28T21:27:42.629Z,17.23
2023-02-28T21:37:47.151Z,19.00
2023-02-28T21:47:50.433Z,22.33
2023-02-28T21:57:54.789Z,15.93
2023-02-28T22:07:58.219Z,13.02
2023-02-28T22:18:02.730Z,19.27
2023-02-28T22:28:05.965Z,11.45
2023-02-28T22:38:11.612Z,12.93
2023-02-28T22:48:14.845Z,13.27
2023-02-28T22:58:19.297Z,14.80
2023-02-28T23:08:23.427Z,12.18
2023-02-28T23:18:27.831Z,9.90
2023-02-28T23:28:31.340Z,14.75
2023-02-28T23:38:35.836Z,16.55
2023-02-28T23:48:39.712Z,14.52
2023-02-28T23:58:45.859Z,15.50
